Startpagina
METAR-TAF:

METAR-TAF

Vliegvelden :

Córdoba, Argentinië

breedte: 31-19S, lengte: 064-13W, hoogte: 484 m

Actueel weer

Dit bericht is 33 minuten geleden gemaakt, om 03:00 UTC
Wind 10 kt uit het noordoosten
Temperatuur 22°C
Vochtigheid 50%
Druk 1012 hPa
Zicht 10 km of meer
geen wolken onder 1500 m en geen cumulonimbus

METAR: SACO 210300Z 04010KT CAVOK 22/11 Q1012 NOSIG

Tijdstip: 00:33 (03:33 UTC)

Verwachting

Dit bericht is 4 uur en het 33 minuten geleden gemaakt, om 23:00 UTC
Verwachting geldig van 21 om 00 UTC tot 21 om 24 UTC
Wind 10 kt uit het noordnoordoosten
Zicht 10 km of meer
Weinig wolken op 3000 ft
Wijzigt naar
van 21 om 06 UTC tot 21 om 09 UTC
Wind 10 kt uit het noorden
Zicht 10 km of meer
geen wolken onder 1500 m en geen cumulonimbus
Wijzigt naar
van 21 om 15 UTC tot 21 om 17 UTC
Wind 15 kt uit het noordnoordoosten met uitschieters tot 25 kt

TAF: SACO 202300Z 2100/2124 02010KT 9999 FEW030 TX35/2119Z TN15/2109Z BECMG 2106/2109 36010KT CAVOK BECMG 2115/2117 02015G25KT

Waarnemingen en weersverwachtingen van meer dan 4000 vliegvelden (METAR en TAF).

De beschikbare stations zijn de gele en rode punten op de kaart.

Ga met uw muis naar het station om de naam te zien.

Klik dan om waarnemingen en weersverwachtingen te zien.

kaart wijzigen: klik op de groene knoppen met een zwart kruis om in te zoomen, op de groene knop met een streepje om uit te zoomen of op de groene pijlen voor aangrenzende kaarten.


METAR-TAF: